sensor_id;sensor_type;location;lat;lon;timestamp;pressure;altitude;pressure_sealevel;temperature;humidity
6829;BME280;17930;48.592;8.868;2024-03-08T00:02:35;96629.03;;;1.90;100.00
6829;BME280;17930;48.592;8.868;2024-03-08T00:05:02;96629.13;;;1.84;100.00
6829;BME280;17930;48.592;8.868;2024-03-08T00:07:29;96624.03;;;1.66;100.00
6829;BME280;17930;48.592;8.868;2024-03-08T00:09:56;96625.44;;;1.51;100.00
6829;BME280;17930;48.592;8.868;2024-03-08T00:12:24;96625.34;;;1.28;100.00
6829;BME280;17930;48.592;8.868;2024-03-08T00:14:51;96631.00;;;1.18;100.00
6829;BME280;17930;48.592;8.868;2024-03-08T00:17:18;96631.16;;;1.05;100.00
6829;BME280;17930;48.592;8.868;2024-03-08T00:19:44;96629.25;;;1.01;100.00
6829;BME280;17930;48.592;8.868;2024-03-08T00:22:11;96630.09;;;0.95;100.00
6829;BME280;17930;48.592;8.868;2024-03-08T00:24:38;96625.19;;;0.76;100.00
6829;BME280;17930;48.592;8.868;2024-03-08T00:27:05;96637.50;;;0.67;100.00
6829;BME280;17930;48.592;8.868;2024-03-08T00:29:33;96634.28;;;0.54;100.00
6829;BME280;17930;48.592;8.868;2024-03-08T00:32:02;96631.13;;;0.34;100.00
6829;BME280;17930;48.592;8.868;2024-03-08T00:34:29;96630.25;;;0.22;100.00
6829;BME280;17930;48.592;8.868;2024-03-08T00:36:56;96623.97;;;0.18;100.00
6829;BME280;17930;48.592;8.868;2024-03-08T00:39:24;96625.50;;;0.01;100.00
6829;BME280;17930;48.592;8.868;2024-03-08T00:41:50;96625.19;;;-0.08;100.00
6829;BME280;17930;48.592;8.868;2024-03-08T00:44:17;96625.84;;;0.05;100.00
6829;BME280;17930;48.592;8.868;2024-03-08T00:46:45;96618.25;;;0.16;100.00
6829;BME280;17930;48.592;8.868;2024-03-08T00:49:12;96623.81;;;0.13;100.00
6829;BME280;17930;48.592;8.868;2024-03-08T00:51:38;96623.50;;;0.03;100.00
6829;BME280;17930;48.592;8.868;2024-03-08T00:54:05;96618.47;;;-0.09;100.00
6829;BME280;17930;48.592;8.868;2024-03-08T00:56:32;96618.59;;;-0.22;100.00
6829;BME280;17930;48.592;8.868;2024-03-08T00:59:00;96616.16;;;-0.17;100.00
6829;BME280;17930;48.592;8.868;2024-03-08T01:01:28;96613.78;;;-0.12;100.00
6829;BME280;17930;48.592;8.868;2024-03-08T01:03:56;96607.19;;;-0.26;100.00
6829;BME280;17930;48.592;8.868;2024-03-08T01:06:23;96612.72;;;-0.29;100.00
6829;BME280;17930;48.592;8.868;2024-03-08T01:08:50;96610.28;;;-0.18;100.00
6829;BME280;17930;48.592;8.868;2024-03-08T01:11:18;96610.16;;;-0.29;100.00
6829;BME280;17930;48.592;8.868;2024-03-08T01:13:44;96601.72;;;-0.05;100.00
6829;BME280;17930;48.592;8.868;2024-03-08T01:16:12;96605.00;;;0.01;100.00
6829;BME280;17930;48.592;8.868;2024-03-08T01:18:39;96603.22;;;0.02;100.00
6829;BME280;17930;48.592;8.868;2024-03-08T01:21:07;96598.72;;;-0.02;100.00
6829;BME280;17930;48.592;8.868;2024-03-08T01:23:34;96597.09;;;-0.21;100.00
6829;BME280;17930;48.592;8.868;2024-03-08T01:26:01;96589.06;;;-0.31;100.00
6829;BME280;17930;48.592;8.868;2024-03-08T01:28:27;96597.78;;;-0.32;100.00
6829;BME280;17930;48.592;8.868;2024-03-08T01:30:54;96592.69;;;-0.39;100.00
6829;BME280;17930;48.592;8.868;2024-03-08T01:33:22;96600.16;;;-0.37;100.00
6829;BME280;17930;48.592;8.868;2024-03-08T01:35:49;96597.44;;;-0.42;100.00
6829;BME280;17930;48.592;8.868;2024-03-08T01:38:17;96583.72;;;-0.54;100.00
6829;BME280;17930;48.592;8.868;2024-03-08T01:40:43;96581.66;;;-0.70;100.00
6829;BME280;17930;48.592;8.868;2024-03-08T01:43:18;96579.94;;;-0.76;100.00
6829;BME280;17930;48.592;8.868;2024-03-08T01:45:45;96572.06;;;-0.81;100.00
6829;BME280;17930;48.592;8.868;2024-03-08T01:48:11;96568.66;;;-0.68;100.00
6829;BME280;17930;48.592;8.868;2024-03-08T01:50:38;96574.38;;;-0.66;100.00
6829;BME280;17930;48.592;8.868;2024-03-08T01:53:06;96557.66;;;-0.69;100.00
6829;BME280;17930;48.592;8.868;2024-03-08T01:55:37;96560.00;;;-0.67;100.00
6829;BME280;17930;48.592;8.868;2024-03-08T01:58:04;96554.50;;;-0.71;100.00
6829;BME280;17930;48.592;8.868;2024-03-08T02:00:32;96545.50;;;-0.80;100.00
6829;BME280;17930;48.592;8.868;2024-03-08T02:03:00;96534.19;;;-0.97;100.00
6829;BME280;17930;48.592;8.868;2024-03-08T02:05:27;96538.75;;;-1.05;100.00
6829;BME280;17930;48.592;8.868;2024-03-08T02:07:55;96524.22;;;-1.04;100.00
6829;BME280;17930;48.592;8.868;2024-03-08T02:10:22;96524.56;;;-1.01;100.00
6829;BME280;17930;48.592;8.868;2024-03-08T02:12:50;96517.69;;;-0.70;100.00
6829;BME280;17930;48.592;8.868;2024-03-08T02:15:17;96519.06;;;-0.43;100.00
6829;BME280;17930;48.592;8.868;2024-03-08T02:17:45;96518.41;;;-0.14;100.00
6829;BME280;17930;48.592;8.868;2024-03-08T02:20:11;96518.81;;;-0.17;100.00
6829;BME280;17930;48.592;8.868;2024-03-08T02:22:40;96518.25;;;-0.19;100.00
6829;BME280;17930;48.592;8.868;2024-03-08T02:25:08;96512.97;;;-0.24;100.00
6829;BME280;17930;48.592;8.868;2024-03-08T02:27:34;96511.69;;;-0.33;100.00
6829;BME280;17930;48.592;8.868;2024-03-08T02:30:01;96515.41;;;-0.29;100.00
6829;BME280;17930;48.592;8.868;2024-03-08T02:32:28;96511.72;;;-0.40;100.00
6829;BME280;17930;48.592;8.868;2024-03-08T02:34:58;96509.66;;;-0.49;100.00
6829;BME280;17930;48.592;8.868;2024-03-08T02:37:25;96512.44;;;-0.51;100.00
6829;BME280;17930;48.592;8.868;2024-03-08T02:39:56;96506.50;;;-0.51;100.00
6829;BME280;17930;48.592;8.868;2024-03-08T02:42:23;96504.00;;;-0.57;100.00
6829;BME280;17930;48.592;8.868;2024-03-08T02:44:50;96503.47;;;-0.66;100.00
6829;BME280;17930;48.592;8.868;2024-03-08T02:47:16;96499.88;;;-0.58;100.00
6829;BME280;17930;48.592;8.868;2024-03-08T02:49:43;96503.38;;;-0.53;100.00
6829;BME280;17930;48.592;8.868;2024-03-08T02:52:09;96504.22;;;-0.59;100.00
6829;BME280;17930;48.592;8.868;2024-03-08T02:54:36;96497.63;;;-0.73;100.00
6829;BME280;17930;48.592;8.868;2024-03-08T02:57:04;96497.63;;;-0.73;100.00
6829;BME280;17930;48.592;8.868;2024-03-08T02:59:32;96491.56;;;-0.78;100.00
6829;BME280;17930;48.592;8.868;2024-03-08T03:01:59;96493.88;;;-0.70;100.00
6829;BME280;17930;48.592;8.868;2024-03-08T03:04:26;96489.63;;;-0.83;100.00
6829;BME280;17930;48.592;8.868;2024-03-08T03:06:53;96483.63;;;-0.95;100.00
6829;BME280;17930;48.592;8.868;2024-03-08T03:09:20;96481.63;;;-0.93;100.00
6829;BME280;17930;48.592;8.868;2024-03-08T03:11:53;96480.56;;;-1.09;100.00
6829;BME280;17930;48.592;8.868;2024-03-08T03:14:21;96490.38;;;-1.06;100.00
6829;BME280;17930;48.592;8.868;2024-03-08T03:16:48;96482.13;;;-1.08;100.00
6829;BME280;17930;48.592;8.868;2024-03-08T03:19:15;96476.88;;;-1.20;100.00
6829;BME280;17930;48.592;8.868;2024-03-08T03:21:42;96478.69;;;-1.27;100.00
6829;BME280;17930;48.592;8.868;2024-03-08T03:24:09;96472.03;;;-1.34;100.00
6829;BME280;17930;48.592;8.868;2024-03-08T03:26:36;96471.72;;;-1.51;100.00
6829;BME280;17930;48.592;8.868;2024-03-08T03:29:05;96474.91;;;-1.61;100.00
6829;BME280;17930;48.592;8.868;2024-03-08T03:31:35;96468.88;;;-1.73;100.00
6829;BME280;17930;48.592;8.868;2024-03-08T03:34:01;96471.44;;;-1.73;100.00
6829;BME280;17930;48.592;8.868;2024-03-08T03:36:29;96469.50;;;-1.78;100.00
6829;BME280;17930;48.592;8.868;2024-03-08T03:38:56;96467.88;;;-1.72;100.00
6829;BME280;17930;48.592;8.868;2024-03-08T03:41:31;96469.88;;;-1.74;100.00
6829;BME280;17930;48.592;8.868;2024-03-08T03:43:58;96467.50;;;-1.69;100.00
6829;BME280;17930;48.592;8.868;2024-03-08T03:46:24;96469.09;;;-1.75;100.00
6829;BME280;17930;48.592;8.868;2024-03-08T03:48:54;96462.03;;;-1.86;100.00
6829;BME280;17930;48.592;8.868;2024-03-08T03:51:20;96459.72;;;-1.94;100.00
6829;BME280;17930;48.592;8.868;2024-03-08T03:53:47;96462.66;;;-1.97;100.00
6829;BME280;17930;48.592;8.868;2024-03-08T03:56:14;96456.00;;;-1.98;100.00
6829;BME280;17930;48.592;8.868;2024-03-08T03:58:41;96453.88;;;-2.01;100.00
6829;BME280;17930;48.592;8.868;2024-03-08T04:01:08;96455.78;;;-1.90;100.00
6829;BME280;17930;48.592;8.868;2024-03-08T04:03:35;96456.94;;;-1.86;100.00
6829;BME280;17930;48.592;8.868;2024-03-08T04:06:03;96457.50;;;-1.84;100.00
6829;BME280;17930;48.592;8.868;2024-03-08T04:08:30;96455.63;;;-1.51;100.00
6829;BME280;17930;48.592;8.868;2024-03-08T04:11:00;96451.34;;;-1.63;100.00
6829;BME280;17930;48.592;8.868;2024-03-08T04:13:26;96452.19;;;-1.76;100.00
6829;BME280;17930;48.592;8.868;2024-03-08T04:15:53;96458.88;;;-1.75;100.00
6829;BME280;17930;48.592;8.868;2024-03-08T04:18:20;96456.13;;;-1.80;100.00
6829;BME280;17930;48.592;8.868;2024-03-08T04:20:47;96457.28;;;-1.76;100.00
6829;BME280;17930;48.592;8.868;2024-03-08T04:23:15;96453.00;;;-1.88;100.00
6829;BME280;17930;48.592;8.868;2024-03-08T04:25:43;96452.69;;;-2.04;100.00
6829;BME280;17930;48.592;8.868;2024-03-08T04:28:10;96447.22;;;-2.21;100.00
6829;BME280;17930;48.592;8.868;2024-03-08T04:30:37;96439.41;;;-2.26;100.00
6829;BME280;17930;48.592;8.868;2024-03-08T04:33:05;96443.53;;;-2.31;100.00
6829;BME280;17930;48.592;8.868;2024-03-08T04:35:32;96439.78;;;-2.42;100.00
6829;BME280;17930;48.592;8.868;2024-03-08T04:37:58;96438.59;;;-2.26;100.00
6829;BME280;17930;48.592;8.868;2024-03-08T04:40:26;96444.91;;;-2.35;100.00
6829;BME280;17930;48.592;8.868;2024-03-08T04:42:53;96441.94;;;-2.32;100.00
6829;BME280;17930;48.592;8.868;2024-03-08T04:45:20;96431.16;;;-2.34;100.00
6829;BME280;17930;48.592;8.868;2024-03-08T04:47:47;96427.03;;;-2.42;100.00
6829;BME280;17930;48.592;8.868;2024-03-08T04:50:14;96430.41;;;-2.48;100.00
6829;BME280;17930;48.592;8.868;2024-03-08T04:52:41;96424.53;;;-2.48;100.00
6829;BME280;17930;48.592;8.868;2024-03-08T04:55:08;96424.13;;;-2.52;100.00
6829;BME280;17930;48.592;8.868;2024-03-08T04:57:36;96425.69;;;-2.44;100.00
6829;BME280;17930;48.592;8.868;2024-03-08T05:00:03;96430.94;;;-2.26;100.00
6829;BME280;17930;48.592;8.868;2024-03-08T05:02:36;96428.78;;;-2.23;100.00
6829;BME280;17930;48.592;8.868;2024-03-08T05:05:04;96426.84;;;-2.27;100.00
6829;BME280;17930;48.592;8.868;2024-03-08T05:07:32;96422.66;;;-2.15;100.00
6829;BME280;17930;48.592;8.868;2024-03-08T05:09:59;96420.09;;;-2.15;100.00
6829;BME280;17930;48.592;8.868;2024-03-08T05:12:26;96418.84;;;-1.94;100.00
6829;BME280;17930;48.592;8.868;2024-03-08T05:14:54;96427.81;;;-1.78;100.00
6829;BME280;17930;48.592;8.868;2024-03-08T05:17:21;96421.72;;;-1.71;100.00
6829;BME280;17930;48.592;8.868;2024-03-08T05:19:49;96418.59;;;-1.42;100.00
6829;BME280;17930;48.592;8.868;2024-03-08T05:22:16;96427.34;;;-1.25;100.00
6829;BME280;17930;48.592;8.868;2024-03-08T05:24:43;96420.00;;;-1.15;100.00
6829;BME280;17930;48.592;8.868;2024-03-08T05:27:09;96419.84;;;-0.96;100.00
6829;BME280;17930;48.592;8.868;2024-03-08T05:29:36;96418.53;;;-0.81;100.00
6829;BME280;17930;48.592;8.868;2024-03-08T05:32:05;96420.53;;;-0.83;100.00
6829;BME280;17930;48.592;8.868;2024-03-08T05:34:32;96425.22;;;-0.80;100.00
6829;BME280;17930;48.592;8.868;2024-03-08T05:37:00;96419.59;;;-0.64;100.00
6829;BME280;17930;48.592;8.868;2024-03-08T05:39:27;96415.91;;;-0.50;100.00
6829;BME280;17930;48.592;8.868;2024-03-08T05:41:55;96416.22;;;-0.40;100.00
6829;BME280;17930;48.592;8.868;2024-03-08T05:44:22;96410.03;;;-0.15;100.00
6829;BME280;17930;48.592;8.868;2024-03-08T05:46:49;96409.28;;;-0.15;100.00
6829;BME280;17930;48.592;8.868;2024-03-08T05:49:17;96415.22;;;-0.21;100.00
6829;BME280;17930;48.592;8.868;2024-03-08T05:51:44;96409.69;;;-0.18;100.00
6829;BME280;17930;48.592;8.868;2024-03-08T05:54:13;96412.81;;;-0.16;100.00
6829;BME280;17930;48.592;8.868;2024-03-08T05:56:40;96414.38;;;0.02;100.00
6829;BME280;17930;48.592;8.868;2024-03-08T05:59:07;96419.78;;;0.12;100.00
6829;BME280;17930;48.592;8.868;2024-03-08T06:01:34;96412.41;;;0.04;100.00
6829;BME280;17930;48.592;8.868;2024-03-08T06:04:02;96406.13;;;0.00;100.00
6829;BME280;17930;48.592;8.868;2024-03-08T06:06:30;96406.25;;;0.05;100.00
6829;BME280;17930;48.592;8.868;2024-03-08T06:08:57;96405.91;;;0.20;100.00
6829;BME280;17930;48.592;8.868;2024-03-08T06:11:25;96407.34;;;0.45;100.00
6829;BME280;17930;48.592;8.868;2024-03-08T06:13:53;96402.84;;;0.41;100.00
6829;BME280;17930;48.592;8.868;2024-03-08T06:16:25;96404.66;;;0.40;100.00
6829;BME280;17930;48.592;8.868;2024-03-08T06:18:55;96401.03;;;0.59;100.00
6829;BME280;17930;48.592;8.868;2024-03-08T06:21:22;96403.59;;;0.59;100.00
6829;BME280;17930;48.592;8.868;2024-03-08T06:23:54;96397.38;;;0.66;100.00
6829;BME280;17930;48.592;8.868;2024-03-08T06:26:22;96399.31;;;0.82;100.00
6829;BME280;17930;48.592;8.868;2024-03-08T06:28:49;96395.16;;;0.70;100.00
6829;BME280;17930;48.592;8.868;2024-03-08T06:31:17;96404.72;;;0.63;100.00
6829;BME280;17930;48.592;8.868;2024-03-08T06:33:45;96406.31;;;0.64;100.00
6829;BME280;17930;48.592;8.868;2024-03-08T06:36:12;96409.41;;;0.66;100.00
6829;BME280;17930;48.592;8.868;2024-03-08T06:38:39;96405.66;;;0.68;100.00
6829;BME280;17930;48.592;8.868;2024-03-08T06:41:09;96404.97;;;0.73;100.00
6829;BME280;17930;48.592;8.868;2024-03-08T06:43:41;96396.06;;;0.75;100.00
6829;BME280;17930;48.592;8.868;2024-03-08T06:46:08;96395.84;;;0.77;100.00
6829;BME280;17930;48.592;8.868;2024-03-08T06:48:35;96394.63;;;0.79;100.00
6829;BME280;17930;48.592;8.868;2024-03-08T06:51:03;96402.13;;;0.81;100.00
6829;BME280;17930;48.592;8.868;2024-03-08T06:53:30;96399.09;;;0.84;100.00
6829;BME280;17930;48.592;8.868;2024-03-08T06:55:57;96394.78;;;0.96;100.00
6829;BME280;17930;48.592;8.868;2024-03-08T06:58:25;96394.00;;;1.06;100.00
6829;BME280;17930;48.592;8.868;2024-03-08T07:00:52;96397.72;;;1.10;100.00
6829;BME280;17930;48.592;8.868;2024-03-08T07:03:21;96393.25;;;1.17;100.00
6829;BME280;17930;48.592;8.868;2024-03-08T07:05:47;96395.16;;;1.22;100.00
6829;BME280;17930;48.592;8.868;2024-03-08T07:08:14;96391.91;;;1.26;100.00
6829;BME280;17930;48.592;8.868;2024-03-08T07:10:42;96399.31;;;1.34;100.00
6829;BME280;17930;48.592;8.868;2024-03-08T07:13:10;96387.00;;;1.36;100.00
6829;BME280;17930;48.592;8.868;2024-03-08T07:15:38;96389.66;;;1.41;100.00
6829;BME280;17930;48.592;8.868;2024-03-08T07:18:05;96385.78;;;1.50;100.00
6829;BME280;17930;48.592;8.868;2024-03-08T07:20:34;96389.88;;;1.62;100.00
6829;BME280;17930;48.592;8.868;2024-03-08T07:23:02;96382.25;;;1.90;100.00
6829;BME280;17930;48.592;8.868;2024-03-08T07:25:29;96381.97;;;2.14;100.00
6829;BME280;17930;48.592;8.868;2024-03-08T07:27:56;96375.28;;;2.13;100.00
6829;BME280;17930;48.592;8.868;2024-03-08T07:30:24;96374.69;;;2.23;100.00
6829;BME280;17930;48.592;8.868;2024-03-08T07:33:11;96374.75;;;2.39;100.00
6829;BME280;17930;48.592;8.868;2024-03-08T07:35:38;96375.19;;;2.36;100.00
6829;BME280;17930;48.592;8.868;2024-03-08T07:38:06;96376.16;;;2.47;100.00
6829;BME280;17930;48.592;8.868;2024-03-08T07:40:35;96373.75;;;2.56;100.00
6829;BME280;17930;48.592;8.868;2024-03-08T07:43:02;96378.69;;;2.58;100.00
6829;BME280;17930;48.592;8.868;2024-03-08T07:45:28;96372.78;;;2.74;100.00
6829;BME280;17930;48.592;8.868;2024-03-08T07:47:56;96373.41;;;2.81;100.00
6829;BME280;17930;48.592;8.868;2024-03-08T07:50:24;96364.03;;;2.75;100.00
6829;BME280;17930;48.592;8.868;2024-03-08T07:52:50;96358.81;;;2.70;100.00
6829;BME280;17930;48.592;8.868;2024-03-08T07:55:17;96354.69;;;2.69;100.00
6829;BME280;17930;48.592;8.868;2024-03-08T07:57:44;96345.66;;;2.83;100.00
6829;BME280;17930;48.592;8.868;2024-03-08T08:00:13;96340.19;;;2.96;100.00
6829;BME280;17930;48.592;8.868;2024-03-08T08:02:43;96336.75;;;2.90;100.00
6829;BME280;17930;48.592;8.868;2024-03-08T08:05:10;96330.06;;;3.05;100.00
6829;BME280;17930;48.592;8.868;2024-03-08T08:07:39;96305.19;;;3.32;100.00
6829;BME280;17930;48.592;8.868;2024-03-08T08:10:07;96306.88;;;3.43;100.00
6829;BME280;17930;48.592;8.868;2024-03-08T08:12:40;96296.69;;;3.53;100.00
6829;BME280;17930;48.592;8.868;2024-03-08T08:15:08;96293.31;;;3.69;100.00
6829;BME280;17930;48.592;8.868;2024-03-08T08:17:35;96300.19;;;3.85;100.00
6829;BME280;17930;48.592;8.868;2024-03-08T08:20:02;96296.25;;;3.56;100.00
6829;BME280;17930;48.592;8.868;2024-03-08T08:22:31;96291.72;;;3.47;100.00
6829;BME280;17930;48.592;8.868;2024-03-08T08:24:59;96288.44;;;3.51;100.00
6829;BME280;17930;48.592;8.868;2024-03-08T08:27:27;96291.47;;;3.64;100.00
6829;BME280;17930;48.592;8.868;2024-03-08T08:29:54;96294.19;;;3.58;100.00
6829;BME280;17930;48.592;8.868;2024-03-08T08:32:21;96290.13;;;3.62;100.00
6829;BME280;17930;48.592;8.868;2024-03-08T08:34:48;96300.00;;;3.49;100.00
6829;BME280;17930;48.592;8.868;2024-03-08T08:37:14;96296.13;;;3.46;100.00
6829;BME280;17930;48.592;8.868;2024-03-08T08:39:42;96294.56;;;3.45;100.00
6829;BME280;17930;48.592;8.868;2024-03-08T08:42:10;96288.56;;;3.61;100.00
6829;BME280;17930;48.592;8.868;2024-03-08T08:44:37;96292.75;;;3.67;100.00
6829;BME280;17930;48.592;8.868;2024-03-08T08:47:04;96288.63;;;3.66;100.00
6829;BME280;17930;48.592;8.868;2024-03-08T08:49:30;96288.91;;;3.91;100.00
6829;BME280;17930;48.592;8.868;2024-03-08T08:51:58;96287.00;;;4.03;100.00
6829;BME280;17930;48.592;8.868;2024-03-08T08:54:24;96283.41;;;3.61;100.00
6829;BME280;17930;48.592;8.868;2024-03-08T08:56:53;96277.78;;;3.64;100.00
6829;BME280;17930;48.592;8.868;2024-03-08T08:59:21;96281.63;;;3.83;100.00
6829;BME280;17930;48.592;8.868;2024-03-08T09:01:50;96273.94;;;3.88;100.00
6829;BME280;17930;48.592;8.868;2024-03-08T09:04:19;96273.81;;;3.78;100.00
6829;BME280;17930;48.592;8.868;2024-03-08T09:06:47;96267.81;;;3.94;100.00
6829;BME280;17930;48.592;8.868;2024-03-08T09:09:14;96267.03;;;4.19;100.00
6829;BME280;17930;48.592;8.868;2024-03-08T09:11:42;96268.63;;;4.52;100.00
6829;BME280;17930;48.592;8.868;2024-03-08T09:14:09;96261.84;;;4.14;100.00
6829;BME280;17930;48.592;8.868;2024-03-08T09:16:38;96273.75;;;4.20;100.00
6829;BME280;17930;48.592;8.868;2024-03-08T09:19:05;96265.50;;;4.18;100.00
6829;BME280;17930;48.592;8.868;2024-03-08T09:21:33;96267.34;;;4.23;100.00
6829;BME280;17930;48.592;8.868;2024-03-08T09:24:00;96264.03;;;4.27;100.00
6829;BME280;17930;48.592;8.868;2024-03-08T09:26:27;96268.28;;;4.43;100.00
6829;BME280;17930;48.592;8.868;2024-03-08T09:28:54;96254.69;;;4.53;100.00
6829;BME280;17930;48.592;8.868;2024-03-08T09:31:21;96254.09;;;4.72;100.00
6829;BME280;17930;48.592;8.868;2024-03-08T09:33:49;96256.19;;;4.75;100.00
6829;BME280;17930;48.592;8.868;2024-03-08T09:36:17;96256.09;;;4.65;100.00
6829;BME280;17930;48.592;8.868;2024-03-08T09:38:44;96253.84;;;4.42;100.00
6829;BME280;17930;48.592;8.868;2024-03-08T09:41:12;96256.81;;;4.29;100.00
6829;BME280;17930;48.592;8.868;2024-03-08T09:43:39;96262.00;;;4.08;100.00
6829;BME280;17930;48.592;8.868;2024-03-08T09:46:07;96249.22;;;3.92;100.00
6829;BME280;17930;48.592;8.868;2024-03-08T09:48:34;96253.25;;;3.83;100.00
6829;BME280;17930;48.592;8.868;2024-03-08T09:51:04;96252.03;;;4.16;100.00
6829;BME280;17930;48.592;8.868;2024-03-08T09:53:31;96242.78;;;4.20;100.00
6829;BME280;17930;48.592;8.868;2024-03-08T09:55:58;96254.75;;;4.05;100.00
6829;BME280;17930;48.592;8.868;2024-03-08T09:58:25;96258.38;;;4.04;100.00
6829;BME280;17930;48.592;8.868;2024-03-08T10:01:20;96240.78;;;4.22;100.00
6829;BME280;17930;48.592;8.868;2024-03-08T10:03:47;96236.81;;;4.46;100.00
6829;BME280;17930;48.592;8.868;2024-03-08T10:06:22;96238.13;;;4.80;100.00
6829;BME280;17930;48.592;8.868;2024-03-08T10:08:49;96237.09;;;4.81;100.00
6829;BME280;17930;48.592;8.868;2024-03-08T10:11:17;96236.66;;;4.89;100.00
6829;BME280;17930;48.592;8.868;2024-03-08T10:13:44;96237.94;;;4.86;100.00
6829;BME280;17930;48.592;8.868;2024-03-08T10:16:12;96229.66;;;4.53;100.00
6829;BME280;17930;48.592;8.868;2024-03-08T10:18:39;96223.34;;;4.70;100.00
6829;BME280;17930;48.592;8.868;2024-03-08T10:21:08;96213.94;;;4.96;100.00
6829;BME280;17930;48.592;8.868;2024-03-08T10:23:37;96212.41;;;5.00;100.00
6829;BME280;17930;48.592;8.868;2024-03-08T10:26:11;96216.22;;;5.28;100.00
6829;BME280;17930;48.592;8.868;2024-03-08T10:28:41;96211.03;;;5.28;100.00
6829;BME280;17930;48.592;8.868;2024-03-08T10:31:08;96204.72;;;5.05;100.00
6829;BME280;17930;48.592;8.868;2024-03-08T10:33:35;96200.06;;;5.02;100.00
6829;BME280;17930;48.592;8.868;2024-03-08T10:36:06;96202.03;;;5.36;100.00
6829;BME280;17930;48.592;8.868;2024-03-08T10:38:37;96200.63;;;5.13;100.00
6829;BME280;17930;48.592;8.868;2024-03-08T10:41:07;96196.31;;;5.29;100.00
6829;BME280;17930;48.592;8.868;2024-03-08T10:43:46;96196.50;;;5.17;100.00
6829;BME280;17930;48.592;8.868;2024-03-08T10:46:27;96195.25;;;5.25;100.00
6829;BME280;17930;48.592;8.868;2024-03-08T10:48:58;96198.13;;;5.28;100.00
6829;BME280;17930;48.592;8.868;2024-03-08T10:51:29;96198.03;;;5.13;100.00
6829;BME280;17930;48.592;8.868;2024-03-08T10:53:59;96200.91;;;5.22;100.00
6829;BME280;17930;48.592;8.868;2024-03-08T10:56:29;96199.34;;;5.21;100.00
6829;BME280;17930;48.592;8.868;2024-03-08T10:58:56;96197.56;;;5.26;100.00
6829;BME280;17930;48.592;8.868;2024-03-08T11:01:23;96204.53;;;5.21;100.00
6829;BME280;17930;48.592;8.868;2024-03-08T11:03:51;96199.09;;;5.17;100.00
6829;BME280;17930;48.592;8.868;2024-03-08T11:06:29;96194.03;;;5.37;100.00
6829;BME280;17930;48.592;8.868;2024-03-08T11:08:59;96196.59;;;5.42;100.00
6829;BME280;17930;48.592;8.868;2024-03-08T11:11:27;96192.53;;;5.56;100.00
6829;BME280;17930;48.592;8.868;2024-03-08T11:13:56;96192.66;;;5.86;100.00
6829;BME280;17930;48.592;8.868;2024-03-08T11:16:38;96199.38;;;5.87;100.00
6829;BME280;17930;48.592;8.868;2024-03-08T11:19:23;96190.66;;;6.27;100.00
6829;BME280;17930;48.592;8.868;2024-03-08T11:21:57;96176.09;;;6.86;100.00
6829;BME280;17930;48.592;8.868;2024-03-08T11:24:26;96171.38;;;7.08;100.00
6829;BME280;17930;48.592;8.868;2024-03-08T11:26:57;96171.72;;;7.54;100.00
6829;BME280;17930;48.592;8.868;2024-03-08T11:29:38;96160.44;;;7.83;100.00
6829;BME280;17930;48.592;8.868;2024-03-08T11:32:11;96156.09;;;8.12;100.00
6829;BME280;17930;48.592;8.868;2024-03-08T11:34:40;96152.19;;;8.19;100.00
6829;BME280;17930;48.592;8.868;2024-03-08T11:37:13;96147.41;;;8.31;100.00
6829;BME280;17930;48.592;8.868;2024-03-08T11:39:46;96156.81;;;8.84;100.00
6829;BME280;17930;48.592;8.868;2024-03-08T11:42:14;96148.06;;;8.75;100.00
6829;BME280;17930;48.592;8.868;2024-03-08T11:44:41;96148.56;;;8.77;100.00
6829;BME280;17930;48.592;8.868;2024-03-08T11:47:10;96144.88;;;9.71;100.00
6829;BME280;17930;48.592;8.868;2024-03-08T11:49:37;96145.09;;;10.29;100.00
6829;BME280;17930;48.592;8.868;2024-03-08T11:52:04;96136.31;;;10.57;100.00
6829;BME280;17930;48.592;8.868;2024-03-08T11:54:32;96132.00;;;10.34;100.00
6829;BME280;17930;48.592;8.868;2024-03-08T11:57:01;96130.38;;;9.47;100.00
6829;BME280;17930;48.592;8.868;2024-03-08T11:59:28;96118.31;;;9.32;100.00
6829;BME280;17930;48.592;8.868;2024-03-08T12:02:01;96121.75;;;9.05;100.00
6829;BME280;17930;48.592;8.868;2024-03-08T12:04:29;96123.22;;;8.64;100.00
6829;BME280;17930;48.592;8.868;2024-03-08T12:06:59;96118.81;;;9.34;100.00
6829;BME280;17930;48.592;8.868;2024-03-08T12:09:27;96103.91;;;11.17;100.00
6829;BME280;17930;48.592;8.868;2024-03-08T12:11:54;96089.75;;;12.58;100.00
6829;BME280;17930;48.592;8.868;2024-03-08T12:14:23;96087.13;;;14.08;100.00
6829;BME280;17930;48.592;8.868;2024-03-08T12:16:58;96078.97;;;14.80;100.00
6829;BME280;17930;48.592;8.868;2024-03-08T12:19:26;96073.59;;;15.14;100.00
6829;BME280;17930;48.592;8.868;2024-03-08T12:21:53;96064.44;;;15.77;100.00
6829;BME280;17930;48.592;8.868;2024-03-08T12:24:21;96058.28;;;15.73;100.00
6829;BME280;17930;48.592;8.868;2024-03-08T12:26:49;96059.13;;;15.86;97.85
6829;BME280;17930;48.592;8.868;2024-03-08T12:29:24;96049.72;;;16.17;99.60
6829;BME280;17930;48.592;8.868;2024-03-08T12:31:54;96045.91;;;16.46;95.86
6829;BME280;17930;48.592;8.868;2024-03-08T12:34:21;96045.66;;;15.87;91.66
6829;BME280;17930;48.592;8.868;2024-03-08T12:36:49;96043.81;;;16.40;91.39
6829;BME280;17930;48.592;8.868;2024-03-08T12:39:18;96028.03;;;16.40;90.63
6829;BME280;17930;48.592;8.868;2024-03-08T12:41:48;96029.41;;;16.82;89.83
6829;BME280;17930;48.592;8.868;2024-03-08T12:44:18;96026.34;;;16.80;90.07
6829;BME280;17930;48.592;8.868;2024-03-08T12:46:49;96020.53;;;17.10;84.84
6829;BME280;17930;48.592;8.868;2024-03-08T12:49:17;96009.97;;;16.86;83.08
6829;BME280;17930;48.592;8.868;2024-03-08T12:51:48;96022.25;;;16.82;84.52
6829;BME280;17930;48.592;8.868;2024-03-08T12:54:18;96010.22;;;17.41;83.20
6829;BME280;17930;48.592;8.868;2024-03-08T12:56:48;96004.66;;;17.69;81.13
6829;BME280;17930;48.592;8.868;2024-03-08T12:59:18;95983.72;;;18.15;84.32
6829;BME280;17930;48.592;8.868;2024-03-08T13:01:48;95979.78;;;18.09;78.46
6829;BME280;17930;48.592;8.868;2024-03-08T13:04:16;95983.31;;;17.74;78.96
6829;BME280;17930;48.592;8.868;2024-03-08T13:06:44;95981.22;;;16.81;78.13
6829;BME280;17930;48.592;8.868;2024-03-08T13:09:12;95976.25;;;16.12;83.41
6829;BME280;17930;48.592;8.868;2024-03-08T13:11:39;95979.41;;;15.33;83.96
6829;BME280;17930;48.592;8.868;2024-03-08T13:14:06;95970.44;;;16.50;85.09